Terminal Aerodrome Forecast
Issued by NWS

Home | Current Version | Previous Version | Graphics & Text | Print | Product List | Glossary On
Versions: 1 2 3 4 5 6 7 8 9 10 11 12 13 14 15 16 17 18 19 20 21 22 23 24 25 26 27 28 29
000
FTUS45 KGGW 300520
TAFOLF
TAF
KOLF 300520Z 3006/3106 VRB06KT 4SM FU SCT015 SCT120
     FM301200 00000KT 6SM FU BKN130
     FM301800 34007KT 6SM FU BKN130=

USA.gov is the U.S. government's official web portal to all federal, state and local government web resources and services.